Game Lodge, South Dakota
Current Conditions -  °F | °C
As of 5:53 AM on Tuesday 21 Oct 2014 (Local Time) from KCUT Reporting Station
Clear Clear  
Wind Chill: 56°   Ceiling: Unl
Heat Index: 56°   Visibility: 10mi
Dew Point: 33°   Wind: 6mph
Humidity: 42%   Direction: 260°W
Pressure: 29.97"   Gusts: NA
Location:  43.6653°N, 103.766°W
Report Text: KCUT 211153Z AUTO 26005KT 10SM CLR 13/01 A2997 RMK AO2 SLP098 T01330006 10144 20078 56005
Loading
Personal Weather Stations






























Interactive Weather Map
Tropical Storm Tracking
New forecast layout! Learn more

10-Day Weather Forecast

Advertisements
Track Severe Weather on mobile